Time;durP1;ratioP1;P1;durP2;ratioP2;P2;SDS_P1;SDS_P2;PMS_P1;PMS_P2;Temp;Humidity;BMP_temperature;BMP_pressure;BME280_temperature;BME280_humidity;BME280_pressure;Samples;Min_cycle;Max_cycle;Signal;HPM_P1;HPM_P2
2022/03/15 00:02:06;;;;;;;31.07;18.53;;;8.10;99.90;;;;;;5265579;28;20296;-46
2022/03/15 00:04:37;;;;;;;26.10;18.20;;;8.10;99.90;;;;;;5267918;28;20184;-46
2022/03/15 00:07:13;;;;;;;28.43;17.50;;;8.30;99.90;;;;;;5267359;28;20591;-48
2022/03/15 00:09:44;;;;;;;34.27;20.03;;;8.30;99.90;;;;;;5266716;28;20771;-46
2022/03/15 00:12:14;;;;;;;29.30;19.90;;;8.30;99.90;;;;;;5265624;28;20542;-47
2022/03/15 00:14:45;;;;;;;33.87;20.40;;;8.30;99.90;;;;;;5266259;28;20209;-46
2022/03/15 00:17:16;;;;;;;29.43;18.00;;;8.30;99.90;;;;;;5246404;28;20703;-48
2022/03/15 00:19:46;;;;;;;35.10;19.43;;;8.30;99.90;;;;;;5264234;28;20670;-46
2022/03/15 00:22:17;;;;;;;34.00;19.17;;;8.30;99.90;;;;;;5263954;28;20213;-47
2022/03/15 00:24:47;;;;;;;30.77;18.47;;;8.20;99.90;;;;;;5263862;28;20547;-47
2022/03/15 00:27:19;;;;;;;27.57;17.30;;;8.20;99.90;;;;;;5266150;28;20173;-47
2022/03/15 00:29:49;;;;;;;31.10;17.30;;;8.10;99.90;;;;;;5262258;28;20342;-46
2022/03/15 00:32:20;;;;;;;31.40;19.23;;;8.00;99.90;;;;;;5266042;28;21809;-47
2022/03/15 00:34:51;;;;;;;31.67;19.20;;;8.00;99.90;;;;;;5266314;28;20185;-47
2022/03/15 00:37:22;;;;;;;32.83;17.80;;;8.00;99.90;;;;;;5266257;28;20169;-47
2022/03/15 00:39:53;;;;;;;33.03;18.10;;;7.90;99.90;;;;;;5266309;28;20488;-48
2022/03/15 00:42:23;;;;;;;30.43;17.70;;;7.80;99.90;;;;;;5264683;28;20209;-46
2022/03/15 00:44:54;;;;;;;35.70;17.63;;;7.80;99.90;;;;;;5267840;28;20181;-46
2022/03/15 00:47:24;;;;;;;27.50;17.87;;;7.80;99.90;;;;;;5264685;28;20646;-47
2022/03/15 00:49:55;;;;;;;23.20;15.77;;;7.80;99.90;;;;;;5264778;28;20209;-47
2022/03/15 00:52:26;;;;;;;36.03;19.77;;;7.80;99.90;;;;;;5267516;28;20247;-48
2022/03/15 00:54:56;;;;;;;28.63;18.20;;;7.80;99.90;;;;;;5262938;28;20173;-48
2022/03/15 00:57:27;;;;;;;29.20;18.30;;;7.70;99.90;;;;;;5265363;28;20432;-46
2022/03/15 00:59:57;;;;;;;40.93;18.60;;;7.70;99.90;;;;;;5266432;28;20194;-47
2022/03/15 01:02:28;;;;;;;32.93;19.00;;;7.70;99.90;;;;;;5265140;28;20681;-47
2022/03/15 01:04:59;;;;;;;31.27;19.53;;;7.70;99.90;;;;;;5264784;28;20182;-47
2022/03/15 01:07:29;;;;;;;29.90;19.83;;;7.80;99.90;;;;;;5267075;28;20273;-47
2022/03/15 01:10:00;;;;;;;31.97;17.67;;;7.90;99.90;;;;;;5266482;28;20314;-46
2022/03/15 01:12:30;;;;;;;32.33;19.17;;;7.90;99.90;;;;;;5261732;28;20198;-47
2022/03/15 01:15:01;;;;;;;31.67;19.27;;;8.00;99.90;;;;;;5267470;28;20186;-47
2022/03/15 01:17:31;;;;;;;35.47;20.30;;;8.00;99.90;;;;;;5262544;28;20273;-47
2022/03/15 01:20:08;;;;;;;34.80;19.93;;;8.00;99.90;;;;;;5264738;28;20201;-46
2022/03/15 01:22:39;;;;;;;35.80;19.80;;;8.00;99.90;;;;;;5265968;28;20210;-48
2022/03/15 01:25:09;;;;;;;29.83;19.67;;;7.80;99.90;;;;;;5266260;28;20825;-47
2022/03/15 01:27:40;;;;;;;35.80;19.63;;;7.70;99.90;;;;;;5263441;28;20474;-47
2022/03/15 01:30:10;;;;;;;37.03;20.60;;;7.70;99.90;;;;;;5261999;28;20645;-47
2022/03/15 01:32:41;;;;;;;32.73;20.20;;;7.50;99.90;;;;;;5267136;28;20206;-47
2022/03/15 01:35:11;;;;;;;39.27;22.13;;;7.50;99.90;;;;;;5257586;28;20194;-48
2022/03/15 01:37:42;;;;;;;30.60;20.50;;;7.40;99.90;;;;;;5263362;28;20272;-48
2022/03/15 01:40:13;;;;;;;33.37;21.67;;;7.50;99.90;;;;;;5265720;28;20177;-47
2022/03/15 01:42:43;;;;;;;37.70;20.13;;;7.60;99.90;;;;;;5267104;28;20262;-47
2022/03/15 01:45:14;;;;;;;35.53;20.33;;;7.60;99.90;;;;;;5269498;28;20201;-48
2022/03/15 01:47:44;;;;;;;40.37;22.13;;;7.50;99.90;;;;;;5264859;28;20181;-47
2022/03/15 01:50:15;;;;;;;30.43;20.17;;;7.50;99.90;;;;;;5251109;28;20237;-46
2022/03/15 01:52:45;;;;;;;34.67;20.87;;;7.50;99.90;;;;;;5265897;28;20190;-47
2022/03/15 01:55:16;;;;;;;31.23;19.23;;;7.50;99.90;;;;;;5269982;28;20280;-47
2022/03/15 01:57:47;;;;;;;33.07;18.73;;;7.40;99.90;;;;;;5268208;28;20256;-46
2022/03/15 02:00:19;;;;;;;35.23;19.17;;;7.40;99.90;;;;;;5265765;28;20700;-46
2022/03/15 02:02:49;;;;;;;30.00;17.17;;;7.40;99.90;;;;;;5269334;28;20512;-47
2022/03/15 02:05:20;;;;;;;31.90;18.33;;;7.50;99.90;;;;;;5262685;28;20459;-48
2022/03/15 02:07:50;;;;;;;29.70;17.27;;;7.50;99.90;;;;;;5260660;28;20193;-48
2022/03/15 02:10:21;;;;;;;34.90;17.87;;;7.60;99.90;;;;;;5267505;28;20205;-48
2022/03/15 02:12:51;;;;;;;27.13;17.23;;;7.60;99.90;;;;;;5268118;28;20202;-47
2022/03/15 02:15:22;;;;;;;36.10;18.07;;;7.70;99.90;;;;;;5270728;28;20696;-47
2022/03/15 02:17:52;;;;;;;30.23;18.50;;;7.80;99.90;;;;;;5268302;28;20185;-48
2022/03/15 02:20:23;;;;;;;27.17;17.33;;;7.70;99.90;;;;;;5266142;28;20185;-47
2022/03/15 02:22:53;;;;;;;27.97;18.17;;;7.70;99.90;;;;;;5265329;28;20212;-48
2022/03/15 02:25:24;;;;;;;26.43;16.77;;;7.80;99.90;;;;;;5264871;28;20178;-47
2022/03/15 02:27:55;;;;;;;28.47;18.20;;;7.70;99.90;;;;;;5265765;28;20188;-47
2022/03/15 02:30:25;;;;;;;31.30;18.13;;;7.80;99.90;;;;;;5268657;28;20205;-48
2022/03/15 02:32:56;;;;;;;29.50;17.73;;;7.70;99.90;;;;;;5266831;28;20201;-47
2022/03/15 02:35:26;;;;;;;30.13;17.33;;;7.80;99.90;;;;;;5250952;28;20174;-48
2022/03/15 02:37:57;;;;;;;24.57;17.37;;;7.80;99.90;;;;;;5266685;28;20281;-49
2022/03/15 02:40:27;;;;;;;27.17;18.20;;;7.70;99.90;;;;;;5267250;28;20174;-46
2022/03/15 02:42:58;;;;;;;29.13;17.87;;;7.60;99.90;;;;;;5265182;28;20232;-47
2022/03/15 02:45:28;;;;;;;37.40;20.20;;;7.60;99.90;;;;;;5268322;28;20182;-47
2022/03/15 02:47:59;;;;;;;36.17;19.53;;;7.60;99.90;;;;;;5266324;28;20699;-48
2022/03/15 02:50:29;;;;;;;30.43;18.20;;;7.60;99.90;;;;;;5268868;28;20212;-46
2022/03/15 02:53:00;;;;;;;32.37;19.10;;;7.60;99.90;;;;;;5266415;28;20189;-48
2022/03/15 02:55:32;;;;;;;29.87;19.10;;;7.60;99.90;;;;;;5267057;28;20543;-46
2022/03/15 02:58:03;;;;;;;30.87;18.70;;;7.60;99.90;;;;;;5265637;28;20273;-48
2022/03/15 03:00:34;;;;;;;31.57;19.20;;;7.70;99.90;;;;;;5266401;28;20495;-46
2022/03/15 03:03:05;;;;;;;39.20;19.47;;;7.70;99.90;;;;;;5269039;28;20202;-46
2022/03/15 03:05:35;;;;;;;31.50;16.80;;;7.70;99.90;;;;;;5267276;28;20434;-46
2022/03/15 03:08:06;;;;;;;32.93;18.77;;;7.70;99.90;;;;;;5266422;28;20231;-47
2022/03/15 03:10:36;;;;;;;31.73;17.03;;;7.60;99.90;;;;;;5265766;28;20169;-47
2022/03/15 03:13:11;;;;;;;40.40;19.47;;;7.60;99.90;;;;;;5261648;28;20185;-46
2022/03/15 03:15:42;;;;;;;25.70;18.37;;;7.50;99.90;;;;;;5268033;28;20546;-47
2022/03/15 03:18:13;;;;;;;32.37;19.47;;;7.50;99.90;;;;;;5266355;28;20443;-49
2022/03/15 03:20:44;;;;;;;33.97;18.47;;;7.40;99.90;;;;;;5265859;28;20439;-47
2022/03/15 03:23:15;;;;;;;40.07;20.60;;;7.40;99.90;;;;;;5266095;28;20188;-47
2022/03/15 03:25:46;;;;;;;31.30;18.50;;;7.30;99.90;;;;;;5267836;28;20439;-47
2022/03/15 03:28:17;;;;;;;38.97;21.47;;;7.30;99.90;;;;;;5264278;28;20808;-48
2022/03/15 03:30:47;;;;;;;33.00;20.17;;;7.30;99.90;;;;;;5262766;28;20259;-48
2022/03/15 03:33:19;;;;;;;39.57;21.50;;;7.30;99.90;;;;;;5265275;28;20971;-46
2022/03/15 03:35:49;;;;;;;34.97;20.20;;;7.30;99.90;;;;;;5267748;28;20178;-47
2022/03/15 03:38:20;;;;;;;47.37;22.47;;;7.40;99.90;;;;;;5267025;28;20432;-47
2022/03/15 03:40:51;;;;;;;40.50;21.70;;;7.40;99.90;;;;;;5262613;28;20178;-48
2022/03/15 03:43:21;;;;;;;35.00;20.33;;;7.30;99.90;;;;;;5258944;28;20197;-47
2022/03/15 03:45:52;;;;;;;31.67;19.93;;;7.30;99.90;;;;;;5258908;28;20174;-48
2022/03/15 03:48:25;;;;;;;36.70;20.60;;;7.30;99.90;;;;;;5264758;28;20213;-47
2022/03/15 03:50:56;;;;;;;42.13;21.00;;;7.20;99.90;;;;;;5259909;28;20289;-46
2022/03/15 03:53:26;;;;;;;47.73;25.87;;;7.10;99.90;;;;;;5266731;28;20481;-47
2022/03/15 03:55:57;;;;;;;52.23;27.13;;;7.10;99.90;;;;;;5265881;28;20173;-48
2022/03/15 03:58:27;;;;;;;49.47;27.13;;;7.00;99.90;;;;;;5262079;28;20596;-46
2022/03/15 04:00:58;;;;;;;45.30;25.40;;;6.90;99.90;;;;;;5266314;28;20229;-48
2022/03/15 04:03:29;;;;;;;41.83;24.33;;;6.80;99.90;;;;;;5263845;28;20178;-46
2022/03/15 04:06:02;;;;;;;50.90;25.30;;;6.80;99.90;;;;;;5265077;28;20204;-47
2022/03/15 04:08:33;;;;;;;39.53;23.23;;;6.80;99.90;;;;;;5264282;28;20546;-47
2022/03/15 04:11:03;;;;;;;45.70;24.80;;;6.80;99.90;;;;;;5265472;28;21357;-47
2022/03/15 04:13:35;;;;;;;43.80;24.57;;;6.80;99.90;;;;;;5263467;28;20269;-47
2022/03/15 04:16:05;;;;;;;43.03;23.20;;;6.90;99.90;;;;;;5248042;28;20177;-47
2022/03/15 04:18:36;;;;;;;40.43;23.20;;;6.90;99.90;;;;;;5262883;28;20546;-46
2022/03/15 04:21:07;;;;;;;42.00;23.70;;;7.00;99.90;;;;;;5263634;28;20545;-47
2022/03/15 04:23:37;;;;;;;39.23;22.20;;;6.90;99.90;;;;;;5264549;28;20185;-48
2022/03/15 04:26:08;;;;;;;38.87;22.87;;;6.90;99.90;;;;;;5265931;28;20439;-48
2022/03/15 04:28:38;;;;;;;41.43;21.80;;;7.00;99.90;;;;;;5260374;28;20216;-48
2022/03/15 04:31:09;;;;;;;36.80;22.00;;;6.80;99.90;;;;;;5266657;28;20204;-46
2022/03/15 04:33:40;;;;;;;42.83;22.10;;;6.80;99.90;;;;;;5265673;28;20184;-47
2022/03/15 04:36:11;;;;;;;37.23;21.97;;;6.70;99.90;;;;;;5266502;28;20184;-46
2022/03/15 04:38:41;;;;;;;35.93;22.93;;;6.60;99.90;;;;;;5268183;28;20174;-47
2022/03/15 04:41:12;;;;;;;48.90;24.63;;;6.60;99.90;;;;;;5265244;28;20263;-46
2022/03/15 04:43:42;;;;;;;36.60;23.30;;;6.50;99.90;;;;;;5265853;28;20200;-47
2022/03/15 04:46:13;;;;;;;38.23;22.53;;;6.50;99.90;;;;;;5265988;28;20188;-47
2022/03/15 04:48:43;;;;;;;50.67;25.00;;;6.50;99.90;;;;;;5264717;28;20569;-46
2022/03/15 04:51:14;;;;;;;37.33;22.90;;;6.60;99.90;;;;;;5264345;28;20212;-47
2022/03/15 04:53:45;;;;;;;37.10;22.70;;;6.60;99.90;;;;;;5265305;28;20192;-47
2022/03/15 04:56:16;;;;;;;41.13;23.03;;;6.60;99.90;;;;;;5267449;28;20276;-48
2022/03/15 04:58:46;;;;;;;35.20;22.00;;;6.70;99.90;;;;;;5266098;28;20584;-47
2022/03/15 05:01:17;;;;;;;36.97;22.73;;;6.80;99.90;;;;;;5264090;28;20240;-47
2022/03/15 05:03:47;;;;;;;37.33;22.00;;;6.70;99.90;;;;;;5262095;28;20199;-49
2022/03/15 05:06:18;;;;;;;38.50;22.20;;;6.60;99.90;;;;;;5265103;28;20190;-49
2022/03/15 05:08:48;;;;;;;39.80;22.57;;;6.50;99.90;;;;;;5267026;28;20307;-46
2022/03/15 05:11:19;;;;;;;46.30;24.50;;;6.40;99.90;;;;;;5265325;28;20626;-49
2022/03/15 05:13:50;;;;;;;42.27;23.63;;;6.40;99.90;;;;;;5265230;28;20184;-49
2022/03/15 05:16:22;;;;;;;43.40;24.43;;;6.30;99.90;;;;;;5248072;28;20192;-47
2022/03/15 05:18:54;;;;;;;40.13;24.67;;;6.30;99.90;;;;;;5265831;28;20187;-47
2022/03/15 05:21:25;;;;;;;42.73;24.77;;;6.30;99.90;;;;;;5267275;28;20458;-47
2022/03/15 05:23:55;;;;;;;47.00;25.27;;;6.20;99.90;;;;;;5268250;28;21268;-48
2022/03/15 05:26:26;;;;;;;44.83;25.87;;;6.20;99.90;;;;;;5265044;28;20182;-47
2022/03/15 05:28:56;;;;;;;54.90;28.20;;;6.00;99.90;;;;;;5267370;28;20687;-46
2022/03/15 05:31:29;;;;;;;43.67;24.80;;;6.00;99.90;;;;;;5265715;28;20227;-46
2022/03/15 05:33:59;;;;;;;51.20;25.63;;;6.10;99.90;;;;;;5283439;28;20237;-48
2022/03/15 05:36:30;;;;;;;47.30;24.50;;;6.00;99.90;;;;;;5269761;28;20922;-47
2022/03/15 05:39:00;;;;;;;51.63;27.43;;;5.90;99.90;;;;;;5264936;28;20180;-47
2022/03/15 05:41:31;;;;;;;47.93;27.30;;;6.00;99.90;;;;;;5267333;28;20553;-49
2022/03/15 05:44:01;;;;;;;60.07;34.50;;;6.00;99.90;;;;;;5278648;28;20230;-46
2022/03/15 05:46:32;;;;;;;47.27;26.03;;;6.20;99.90;;;;;;5264287;28;20210;-46
2022/03/15 05:49:03;;;;;;;50.97;26.13;;;6.20;99.90;;;;;;5262034;28;20284;-46
2022/03/15 05:51:33;;;;;;;49.53;26.90;;;6.20;99.90;;;;;;5265077;28;20208;-45
2022/03/15 05:54:04;;;;;;;49.13;25.47;;;6.30;99.90;;;;;;5264821;28;20628;-46
2022/03/15 05:56:35;;;;;;;56.20;26.93;;;6.30;99.90;;;;;;5263401;28;20182;-44
2022/03/15 05:59:06;;;;;;;48.37;25.70;;;6.50;99.90;;;;;;5265567;28;20443;-44
2022/03/15 06:01:37;;;;;;;42.03;25.37;;;6.70;99.90;;;;;;5259240;28;23058;-47
2022/03/15 06:04:09;;;;;;;45.97;24.50;;;6.80;99.90;;;;;;5254553;28;20188;-45
2022/03/15 06:06:39;;;;;;;46.70;26.50;;;6.80;99.90;;;;;;5261896;28;20738;-47
2022/03/15 06:09:10;;;;;;;49.20;26.20;;;6.80;99.90;;;;;;5263715;28;20513;-46
2022/03/15 06:11:40;;;;;;;50.20;27.23;;;7.00;99.90;;;;;;5262919;28;20207;-46
2022/03/15 06:14:12;;;;;;;57.57;30.30;;;6.90;99.90;;;;;;5260845;28;20181;-46
2022/03/15 06:16:42;;;;;;;48.63;29.33;;;6.80;99.90;;;;;;5266325;28;20544;-46
2022/03/15 06:19:13;;;;;;;47.47;27.00;;;6.70;99.90;;;;;;5262731;28;20439;-44
2022/03/15 06:21:44;;;;;;;55.00;27.00;;;6.80;99.90;;;;;;5269356;28;20223;-44
2022/03/15 06:24:15;;;;;;;53.17;27.97;;;6.90;99.90;;;;;;5264520;28;20549;-47
2022/03/15 06:26:46;;;;;;;50.27;27.10;;;7.10;99.90;;;;;;5258510;28;20189;-47
2022/03/15 06:29:16;;;;;;;47.23;26.73;;;7.40;99.90;;;;;;5260740;28;20799;-47
2022/03/15 06:31:47;;;;;;;56.47;29.53;;;7.90;99.90;;;;;;5264529;28;20548;-45
2022/03/15 06:34:17;;;;;;;45.90;24.00;;;8.60;99.90;;;;;;5264096;28;20195;-46
2022/03/15 06:36:48;;;;;;;37.40;22.70;;;9.20;99.90;;;;;;5265391;28;20335;-46
2022/03/15 06:39:18;;;;;;;37.23;21.77;;;9.90;99.90;;;;;;5259007;28;20650;-48
2022/03/15 06:41:49;;;;;;;35.83;20.73;;;10.50;99.90;;;;;;5262031;28;20274;-45
2022/03/15 06:44:19;;;;;;;32.13;20.70;;;11.50;99.90;;;;;;5260857;28;20234;-45
2022/03/15 06:46:50;;;;;;;29.30;19.07;;;12.60;99.90;;;;;;5262853;28;20185;-47
2022/03/15 06:49:20;;;;;;;32.07;20.40;;;13.70;99.90;;;;;;5268723;28;20198;-46
2022/03/15 06:51:51;;;;;;;30.60;19.13;;;14.40;99.90;;;;;;5276457;27;20213;-46
2022/03/15 06:54:22;;;;;;;27.77;17.47;;;14.90;99.70;;;;;;5266394;28;20178;-44
2022/03/15 06:56:59;;;;;;;31.90;18.93;;;15.30;96.60;;;;;;5267240;28;20667;-44
2022/03/15 06:59:29;;;;;;;27.97;18.63;;;15.80;93.00;;;;;;5261540;28;20450;-46
2022/03/15 07:02:00;;;;;;;31.10;18.70;;;16.20;85.70;;;;;;5261078;28;20460;-46
2022/03/15 07:04:30;;;;;;;31.73;18.40;;;16.60;73.60;;;;;;5264076;28;20677;-45
2022/03/15 07:07:01;;;;;;;31.53;18.13;;;17.00;68.60;;;;;;5260852;28;20545;-45
2022/03/15 07:09:31;;;;;;;31.33;18.60;;;17.20;65.30;;;;;;5261371;28;20204;-49
2022/03/15 07:12:02;;;;;;;29.50;17.40;;;17.50;63.70;;;;;;5257675;28;20247;-47
2022/03/15 07:14:33;;;;;;;23.20;16.80;;;17.90;60.70;;;;;;5262266;28;20240;-45
2022/03/15 07:17:03;;;;;;;30.87;19.17;;;17.70;60.40;;;;;;5264088;28;20186;-45
2022/03/15 07:19:34;;;;;;;28.07;17.67;;;18.10;59.80;;;;;;5262147;28;20657;-46
2022/03/15 07:22:07;;;;;;;28.43;17.83;;;18.60;58.10;;;;;;5262733;28;20258;-48
2022/03/15 07:24:38;;;;;;;34.50;18.93;;;19.00;56.80;;;;;;5262412;28;20536;-45
2022/03/15 07:27:08;;;;;;;29.07;16.53;;;19.50;54.90;;;;;;5261864;28;20443;-46
2022/03/15 07:29:39;;;;;;;28.97;18.07;;;19.60;53.60;;;;;;5261417;28;20618;-46
2022/03/15 07:32:10;;;;;;;30.27;19.33;;;19.30;53.30;;;;;;5259685;28;20206;-47
2022/03/15 07:34:40;;;;;;;35.50;18.57;;;18.60;53.80;;;;;;5260884;28;20178;-45
2022/03/15 07:37:11;;;;;;;30.27;18.27;;;18.40;54.30;;;;;;5262944;28;20256;-47
2022/03/15 07:39:42;;;;;;;29.10;18.27;;;18.30;55.20;;;;;;5260222;28;20550;-48
2022/03/15 07:42:12;;;;;;;31.97;18.10;;;18.40;55.70;;;;;;5259697;28;20498;-48
2022/03/15 07:44:44;;;;;;;27.87;17.73;;;18.60;55.10;;;;;;5260553;28;20558;-46
2022/03/15 07:47:15;;;;;;;34.83;20.10;;;18.90;54.10;;;;;;5257419;28;20556;-46
2022/03/15 07:49:47;;;;;;;28.50;20.03;;;19.00;53.50;;;;;;5259734;28;20452;-45
2022/03/15 07:52:18;;;;;;;32.10;20.33;;;18.90;52.70;;;;;;5254482;28;20711;-49
2022/03/15 07:54:48;;;;;;;35.30;19.10;;;18.80;53.30;;;;;;5264198;28;20411;-46
2022/03/15 07:57:19;;;;;;;29.00;18.60;;;18.70;53.70;;;;;;5265843;28;20260;-46
2022/03/15 07:59:49;;;;;;;32.83;21.23;;;18.60;53.60;;;;;;5263581;28;20197;-46
2022/03/15 08:02:21;;;;;;;30.73;19.97;;;18.20;53.70;;;;;;5260272;28;20205;-46
2022/03/15 08:04:53;;;;;;;36.70;21.60;;;17.80;55.00;;;;;;5262013;28;20181;-47
2022/03/15 08:07:24;;;;;;;28.00;18.40;;;17.30;56.60;;;;;;5263214;28;20450;-46
2022/03/15 08:09:54;;;;;;;37.27;20.17;;;16.80;57.90;;;;;;5262509;28;20459;-46
2022/03/15 08:12:26;;;;;;;29.53;18.80;;;16.10;59.90;;;;;;5261637;28;20241;-46
2022/03/15 08:14:56;;;;;;;32.03;19.83;;;15.90;64.00;;;;;;5262989;28;20177;-45
2022/03/15 08:17:27;;;;;;;37.37;21.50;;;15.50;64.70;;;;;;5263251;28;20957;-48
2022/03/15 08:19:58;;;;;;;43.13;20.70;;;15.10;70.60;;;;;;5245228;28;20231;-47
2022/03/15 08:22:30;;;;;;;37.80;23.43;;;14.80;76.00;;;;;;5260317;28;20213;-47
2022/03/15 08:25:02;;;;;;;37.63;22.23;;;14.30;84.30;;;;;;5255801;28;20439;-48
2022/03/15 08:27:34;;;;;;;34.77;21.17;;;14.10;91.10;;;;;;5262628;28;20423;-46
2022/03/15 08:30:05;;;;;;;36.80;22.63;;;14.00;94.10;;;;;;5240836;28;20463;-47
2022/03/15 08:32:36;;;;;;;42.60;22.43;;;13.80;94.60;;;;;;5265168;28;20534;-45
2022/03/15 08:35:07;;;;;;;44.37;24.07;;;13.50;98.50;;;;;;5260257;28;20531;-45
2022/03/15 08:37:37;;;;;;;45.07;23.50;;;13.20;99.90;;;;;;5265045;28;20185;-46
2022/03/15 08:40:09;;;;;;;42.50;24.43;;;12.70;99.90;;;;;;5263960;28;20846;-46
2022/03/15 08:42:40;;;;;;;33.70;23.73;;;12.10;99.90;;;;;;5227803;28;1036156;-45
2022/03/15 08:45:11;;;;;;;47.97;23.93;;;12.10;99.90;;;;;;5260132;28;20193;-49
2022/03/15 08:47:41;;;;;;;38.43;22.63;;;12.20;99.90;;;;;;5252298;28;20272;-45
2022/03/15 08:50:12;;;;;;;36.37;21.37;;;12.30;99.90;;;;;;5261888;28;20209;-47
2022/03/15 08:52:44;;;;;;;36.43;21.70;;;12.30;99.90;;;;;;5264759;28;20542;-47
2022/03/15 08:55:16;;;;;;;42.33;22.50;;;12.40;99.90;;;;;;5265513;28;20181;-46
2022/03/15 08:57:47;;;;;;;37.87;22.60;;;12.60;99.90;;;;;;5266454;28;20432;-49
2022/03/15 09:00:18;;;;;;;31.47;20.97;;;12.70;99.90;;;;;;5266777;28;20450;-47
2022/03/15 09:02:50;;;;;;;39.53;21.40;;;12.80;99.90;;;;;;5266757;28;20217;-48
2022/03/15 09:05:21;;;;;;;34.47;22.63;;;12.80;99.90;;;;;;5267975;28;20885;-48
2022/03/15 09:07:52;;;;;;;39.00;20.70;;;12.70;99.90;;;;;;5264482;28;20529;-45
2022/03/15 09:10:24;;;;;;;41.17;22.80;;;12.80;99.90;;;;;;5265093;28;20205;-46
2022/03/15 09:12:55;;;;;;;34.87;20.80;;;12.80;99.90;;;;;;5264555;28;20452;-45
2022/03/15 09:15:25;;;;;;;38.60;22.93;;;12.90;99.90;;;;;;5248038;28;20493;-46
2022/03/15 09:17:57;;;;;;;30.77;21.33;;;13.00;99.90;;;;;;5267748;28;20208;-46
2022/03/15 09:20:28;;;;;;;38.53;21.20;;;12.90;99.90;;;;;;5263487;28;20230;-45
2022/03/15 09:22:59;;;;;;;37.23;21.37;;;13.00;99.90;;;;;;5264582;28;20941;-48
2022/03/15 09:25:32;;;;;;;35.63;21.87;;;13.10;99.90;;;;;;5264945;28;20184;-48
2022/03/15 09:28:03;;;;;;;39.30;20.90;;;13.20;99.90;;;;;;5267570;28;20573;-47
2022/03/15 09:30:34;;;;;;;39.67;20.27;;;13.30;99.90;;;;;;5265018;28;20466;-47
2022/03/15 09:33:05;;;;;;;35.83;19.50;;;13.50;99.90;;;;;;5267784;28;20955;-47
2022/03/15 09:35:36;;;;;;;47.63;22.20;;;13.40;99.90;;;;;;5264014;28;20211;-47
2022/03/15 09:38:07;;;;;;;41.43;20.57;;;13.60;99.90;;;;;;5262345;28;20431;-47
2022/03/15 09:40:38;;;;;;;35.47;19.57;;;13.70;99.90;;;;;;5273776;28;20182;-50
2022/03/15 09:43:12;;;;;;;38.07;17.73;;;13.90;99.90;;;;;;5270831;28;20450;-47
2022/03/15 09:45:45;;;;;;;32.00;16.80;;;13.90;99.90;;;;;;5269900;28;20181;-48
2022/03/15 09:48:19;;;;;;;32.63;17.57;;;14.00;99.90;;;;;;5263293;28;20511;-47
2022/03/15 09:50:51;;;;;;;43.90;22.57;;;14.10;99.90;;;;;;5266531;28;20420;-48
2022/03/15 09:53:22;;;;;;;34.77;18.50;;;14.20;99.90;;;;;;5266359;28;20991;-46
2022/03/15 09:55:53;;;;;;;31.83;17.70;;;14.10;99.90;;;;;;5265274;28;20419;-46
2022/03/15 09:58:24;;;;;;;36.07;18.17;;;14.00;99.90;;;;;;5269529;28;20838;-47
2022/03/15 10:00:57;;;;;;;36.97;15.60;;;14.00;99.90;;;;;;5263451;28;20182;-50
2022/03/15 10:03:27;;;;;;;31.13;16.13;;;14.00;99.90;;;;;;5264891;28;20899;-48
2022/03/15 10:05:58;;;;;;;29.47;15.50;;;14.20;99.90;;;;;;5248394;28;20428;-47
2022/03/15 10:08:29;;;;;;;29.90;16.50;;;14.10;99.70;;;;;;5266155;28;20192;-47
2022/03/15 10:10:59;;;;;;;34.27;17.00;;;14.00;98.80;;;;;;5265179;28;20243;-47
2022/03/15 10:13:30;;;;;;;28.90;15.23;;;13.90;99.20;;;;;;5265116;28;20177;-49
2022/03/15 10:16:03;;;;;;;31.30;17.17;;;13.90;99.90;;;;;;5264424;28;20306;-48
2022/03/15 10:18:34;;;;;;;32.57;14.80;;;14.00;99.90;;;;;;5266471;28;20181;-46
2022/03/15 10:21:04;;;;;;;25.30;15.07;;;14.00;99.70;;;;;;5266499;28;20443;-45
2022/03/15 10:23:38;;;;;;;28.87;14.87;;;14.00;99.20;;;;;;5264696;28;20188;-46
2022/03/15 10:26:08;;;;;;;20.87;12.53;;;13.80;97.50;;;;;;5267224;28;20180;-48
2022/03/15 10:28:40;;;;;;;25.60;13.70;;;13.80;98.20;;;;;;5268070;28;20467;-47
2022/03/15 10:31:12;;;;;;;26.13;13.50;;;13.90;98.00;;;;;;5266143;28;20197;-49
2022/03/15 10:33:43;;;;;;;32.63;16.37;;;14.30;96.70;;;;;;5268639;28;21812;-47
2022/03/15 10:36:29;;;;;;;29.10;14.20;;;14.20;94.80;;;;;;5264633;28;20526;-46
2022/03/15 10:39:00;;;;;;;19.97;13.73;;;14.30;96.30;;;;;;5273248;27;20534;-48
2022/03/15 10:41:41;;;;;;;29.07;15.57;;;14.70;95.50;;;;;;5263460;28;20475;-47
2022/03/15 10:44:17;;;;;;;25.03;14.53;;;15.00;93.60;;;;;;5263661;28;20189;-50
2022/03/15 10:47:06;;;;;;;19.87;13.10;;;15.20;88.00;;;;;;5266005;28;20509;-47
2022/03/15 10:49:47;;;;;;;25.70;14.27;;;15.00;86.40;;;;;;5257207;28;20459;-48
2022/03/15 10:52:35;;;;;;;28.13;13.97;;;15.20;85.80;;;;;;5263817;28;20558;-48
2022/03/15 10:55:28;;;;;;;20.93;13.17;;;15.40;82.90;;;;;;5264110;28;20428;-48
2022/03/15 10:58:02;;;;;;;27.37;13.70;;;15.50;79.00;;;;;;5265754;28;20423;-47
2022/03/15 11:00:39;;;;;;;19.30;13.10;;;15.50;78.80;;;;;;5262131;28;20436;-48
2022/03/15 11:03:23;;;;;;;24.50;14.17;;;15.60;80.30;;;;;;5264637;28;20470;-50
2022/03/15 11:05:57;;;;;;;31.53;13.27;;;15.50;75.10;;;;;;5266304;28;20492;-48
2022/03/15 11:08:28;;;;;;;25.27;14.17;;;15.40;69.00;;;;;;5263680;28;20436;-47
2022/03/15 11:11:03;;;;;;;24.83;12.00;;;15.20;70.20;;;;;;5265313;28;20963;-49
2022/03/15 11:13:36;;;;;;;19.13;10.77;;;15.30;71.70;;;;;;5263387;28;20315;-49
2022/03/15 11:16:07;;;;;;;17.07;11.57;;;15.20;71.70;;;;;;5264661;28;20438;-50
2022/03/15 11:18:38;;;;;;;16.70;12.57;;;15.20;71.70;;;;;;5261798;28;20436;-47
2022/03/15 11:21:10;;;;;;;25.47;14.13;;;15.30;72.50;;;;;;5264418;28;21053;-49
2022/03/15 11:23:44;;;;;;;25.47;14.87;;;15.30;71.50;;;;;;5263288;28;20970;-47
2022/03/15 11:26:17;;;;;;;20.40;13.07;;;15.20;72.30;;;;;;5259068;28;20458;-49
2022/03/15 11:28:49;;;;;;;22.80;13.87;;;15.00;72.90;;;;;;5262813;28;21315;-48
2022/03/15 11:31:20;;;;;;;34.83;15.47;;;15.10;74.30;;;;;;5263221;28;20446;-49
2022/03/15 11:33:54;;;;;;;20.80;14.07;;;15.10;72.60;;;;;;5259217;28;20436;-47
2022/03/15 11:36:25;;;;;;;23.67;13.60;;;15.10;73.80;;;;;;5264268;28;20427;-47
2022/03/15 11:38:58;;;;;;;26.70;13.37;;;15.20;71.60;;;;;;5264560;28;20452;-49
2022/03/15 11:41:29;;;;;;;21.40;13.93;;;15.30;72.20;;;;;;5262046;28;20455;-48
2022/03/15 11:44:21;;;;;;;19.60;12.63;;;15.10;67.40;;;;;;5263661;28;20430;-49
2022/03/15 11:47:01;;;;;;;31.13;16.23;;;15.20;69.00;;;;;;5261823;28;20242;-46
2022/03/15 11:49:48;;;;;;;31.77;15.30;;;15.30;68.80;;;;;;5260868;28;20451;-48
2022/03/15 11:52:57;;;;;;;26.37;15.87;;;15.40;68.80;;;;;;5263953;28;20802;-47
2022/03/15 11:55:34;;;;;;;27.13;13.07;;;15.50;68.70;;;;;;5265228;28;20408;-48
2022/03/15 11:58:05;;;;;;;15.30;11.50;;;15.60;67.50;;;;;;5263920;28;20483;-49
2022/03/15 12:00:42;;;;;;;22.53;12.73;;;15.70;67.10;;;;;;5261867;28;20506;-47
2022/03/15 12:03:19;;;;;;;18.77;11.30;;;15.80;64.90;;;;;;5263512;28;20790;-48
2022/03/15 12:05:55;;;;;;;20.70;12.07;;;15.70;63.80;;;;;;5256246;28;20462;-48
2022/03/15 12:08:28;;;;;;;21.35;13.05;;;15.60;63.70;;;;;;5260367;28;20439;-49
2022/03/15 12:11:05;;;;;;;19.00;12.33;;;15.60;64.60;;;;;;5259757;28;20948;-46
2022/03/15 12:13:45;;;;;;;30.00;15.37;;;15.70;62.90;;;;;;5277114;27;20435;-49
2022/03/15 12:16:25;;;;;;;23.17;12.83;;;15.40;63.30;;;;;;5279819;22;20498;-50
2022/03/15 12:19:14;;;;;;;22.67;12.00;;;15.30;64.10;;;;;;5276089;28;20439;-52
2022/03/15 12:21:53;;;;;;;25.63;14.50;;;15.40;64.00;;;;;;5276905;28;20416;-51
2022/03/15 12:24:45;;;;;;;30.80;14.20;;;15.40;64.30;;;;;;5273904;28;20529;-50
2022/03/15 12:27:18;;;;;;;23.90;14.30;;;15.40;64.30;;;;;;5283335;28;20490;-50
2022/03/15 12:29:54;;;;;;;21.70;13.37;;;15.30;65.00;;;;;;5259291;28;20512;-49
2022/03/15 12:32:26;;;;;;;23.30;13.17;;;15.20;65.40;;;;;;5277719;28;20439;-51
2022/03/15 12:34:58;;;;;;;18.80;11.63;;;15.10;65.90;;;;;;5279501;28;20442;-49
2022/03/15 12:37:37;;;;;;;23.30;14.50;;;15.10;67.10;;;;;;5280360;28;20433;-52
2022/03/15 12:40:10;;;;;;;23.40;11.40;;;15.30;67.00;;;;;;5279273;27;20427;-50
2022/03/15 12:42:53;;;;;;;23.77;12.37;;;15.30;66.40;;;;;;5282814;28;20442;-51
2022/03/15 12:45:24;;;;;;;21.07;11.87;;;15.40;66.10;;;;;;5279027;28;20454;-51
2022/03/15 12:48:04;;;;;;;19.23;12.50;;;15.40;63.10;;;;;;5283492;28;20713;-52
2022/03/15 12:50:36;;;;;;;27.13;12.50;;;15.40;63.00;;;;;;5281380;28;20204;-49
2022/03/15 12:53:15;;;;;;;16.93;11.03;;;15.30;62.20;;;;;;5284035;28;20442;-49
2022/03/15 12:55:46;;;;;;;15.60;10.53;;;15.30;62.10;;;;;;5283755;28;20830;-50
2022/03/15 12:58:18;;;;;;;19.40;12.17;;;15.40;62.20;;;;;;5285107;28;20456;-50